Clipper 3 — ZMT3984 — position and weather

sailwx.info

Track history (hours):
 
Tides and Currents Weather Stations Pressure Air Temp Water Temp Dewpoint Dewpoint Depression Visibility Wind Speed Wind Dir Waves Ship Positions

Clipper 3

Last reported at 2017-May-25 07:52 UTC. Time now 2017-May-25 12:30 UTC.
Position S 36°50' E 174°51'.

Length 15 m.

Type: High speed craft. MMSI: 512000741.

Date/timePositionNaut miles runAvg speedWind from/ knotsBaromVisibWave heightAir tempDewpointWater temp
2017-May-25 07:52S 36°50' E 174°51'0 0.0
2017-May-25 05:53S 36°50' E 174°51'0 0.2
2017-May-25 04:35S 36°50' E 174°51'0 0.0
2017-May-25 01:56S 36°50' E 174°51'0 0.1
2017-May-25 00:24S 36°50' E 174°51'410.6
2017-May-25 00:00S 36°50' E 174°46'5 1.5
2017-May-24 20:54S 36°50' E 174°52'1 0.7
2017-May-24 19:36S 36°51' E 174°53'527.1
2017-May-24 19:24S 36°50' E 174°47'3 0.3
2017-May-24 07:51S 36°50' E 174°51'0 0.1
2017-May-24 05:52S 36°50' E 174°51'0 0.2
2017-May-24 04:35S 36°50' E 174°51'328.5
2017-May-24 04:28S 36°50' E 174°47'3 0.8
2017-May-24 00:24S 36°50' E 174°51'0 0.0
2017-May-23 22:03S 36°50' E 174°51'1 0.3
2017-May-23 20:13S 36°50' E 174°52'1 0.1
2017-May-23 05:52S 36°50' E 174°51'0 0.2
2017-May-23 04:33S 36°50' E 174°51'0 0.0
2017-May-23 01:53S 36°50' E 174°51'0 0.0
2017-May-23 00:23S 36°50' E 174°51'0 0.0
2017-May-22 22:04S 36°50' E 174°51'330.2
2017-May-22 21:59S 36°50' E 174°48'3 1.8
2017-May-22 20:16S 36°50' E 174°52'1 0.0
2017-May-22 05:53S 36°50' E 174°51'0 0.3
2017-May-22 04:34S 36°50' E 174°51'425.1
2017-May-22 04:25S 36°50' E 174°47'4 1.7
2017-May-22 01:55S 36°50' E 174°52'1 0.4
2017-May-22 00:25S 36°50' E 174°51'0 0.0
2017-May-21 22:04S 36°50' E 174°51'1 0.8
2017-May-21 20:16S 36°50' E 174°53'621.1
2017-May-21 20:00S 36°51' E 174°46'  
2017-May-19 05:51S 36°50' E 174°51'0 0.1
2017-May-19 04:34S 36°50' E 174°51'1 0.1
2017-May-18 22:03S 36°50' E 174°52'513.0
2017-May-18 21:41S 36°51' E 174°46'4 2.7
2017-May-18 20:11S 36°50' E 174°51'0 0.0
2017-May-18 05:52S 36°50' E 174°51'0 0.0
2017-May-17 22:03S 36°50' E 174°51'0 0.0
2017-May-17 01:53S 36°50' E 174°51'0 0.1
2017-May-17 00:24S 36°50' E 174°51'3 0.7
2017-May-16 20:05S 36°50' E 174°47'112.6
2017-May-16 20:00S 36°51' E 174°46'4 0.3
2017-May-16 05:54S 36°50' E 174°51'0 0.0
2017-May-16 01:54S 36°50' E 174°51'0 0.0
2017-May-15 22:05S 36°50' E 174°51'  
Track history (hours):
 
Tides and Currents Weather Stations Pressure Air Temp Water Temp Dewpoint Dewpoint Depression Visibility Wind Speed Wind Dir Waves Ship Positions

Clipper 3

Last reported at 2017-May-25 07:52 UTC. Time now 2017-May-25 12:30 UTC.
Position S 36°50' E 174°51'.

Length 15 m.

Type: High speed craft. MMSI: 512000741.

Date/timePositionNaut miles runAvg speedWind from/ knotsBaromVisibWave heightAir tempDewpointWater temp
2017-May-25 07:52S 36°50' E 174°51'0 0.0
2017-May-25 05:53S 36°50' E 174°51'0 0.2
2017-May-25 04:35S 36°50' E 174°51'0 0.0
2017-May-25 01:56S 36°50' E 174°51'0 0.1
2017-May-25 00:24S 36°50' E 174°51'410.6
2017-May-25 00:00S 36°50' E 174°46'5 1.5
2017-May-24 20:54S 36°50' E 174°52'1 0.7
2017-May-24 19:36S 36°51' E 174°53'527.1
2017-May-24 19:24S 36°50' E 174°47'3 0.3
2017-May-24 07:51S 36°50' E 174°51'0 0.1
2017-May-24 05:52S 36°50' E 174°51'0 0.2
2017-May-24 04:35S 36°50' E 174°51'328.5
2017-May-24 04:28S 36°50' E 174°47'3 0.8
2017-May-24 00:24S 36°50' E 174°51'0 0.0
2017-May-23 22:03S 36°50' E 174°51'1 0.3
2017-May-23 20:13S 36°50' E 174°52'1 0.1
2017-May-23 05:52S 36°50' E 174°51'0 0.2
2017-May-23 04:33S 36°50' E 174°51'0 0.0
2017-May-23 01:53S 36°50' E 174°51'0 0.0
2017-May-23 00:23S 36°50' E 174°51'0 0.0
2017-May-22 22:04S 36°50' E 174°51'330.2
2017-May-22 21:59S 36°50' E 174°48'3 1.8
2017-May-22 20:16S 36°50' E 174°52'1 0.0
2017-May-22 05:53S 36°50' E 174°51'0 0.3
2017-May-22 04:34S 36°50' E 174°51'425.1
2017-May-22 04:25S 36°50' E 174°47'4 1.7
2017-May-22 01:55S 36°50' E 174°52'1 0.4
2017-May-22 00:25S 36°50' E 174°51'0 0.0
2017-May-21 22:04S 36°50' E 174°51'1 0.8
2017-May-21 20:16S 36°50' E 174°53'621.1
2017-May-21 20:00S 36°51' E 174°46'  
2017-May-19 05:51S 36°50' E 174°51'0 0.1
2017-May-19 04:34S 36°50' E 174°51'1 0.1
2017-May-18 22:03S 36°50' E 174°52'513.0
2017-May-18 21:41S 36°51' E 174°46'4 2.7
2017-May-18 20:11S 36°50' E 174°51'0 0.0
2017-May-18 05:52S 36°50' E 174°51'0 0.0
2017-May-17 22:03S 36°50' E 174°51'0 0.0
2017-May-17 01:53S 36°50' E 174°51'0 0.1
2017-May-17 00:24S 36°50' E 174°51'3 0.7
2017-May-16 20:05S 36°50' E 174°47'112.6
2017-May-16 20:00S 36°51' E 174°46'4 0.3
2017-May-16 05:54S 36°50' E 174°51'0 0.0
2017-May-16 01:54S 36°50' E 174°51'0 0.0
2017-May-15 22:05S 36°50' E 174°51'  

Dump ship's entire track history